Time;durP1;ratioP1;P1;durP2;ratioP2;P2;SDS_P1;SDS_P2;PMS_P1;PMS_P2;Temp;Humidity;BMP_temperature;BMP_pressure;BME280_temperature;BME280_humidity;BME280_pressure;Samples;Min_cycle;Max_cycle;Signal;HPM_P1;HPM_P2
2023/03/31 00:02:21;;;;;;;17.02;3.13;;;10.40;99.90;;;;;;5032820;28;20097;-45
2023/03/31 00:04:58;;;;;;;23.67;3.23;;;10.50;99.90;;;;;;5032701;28;20482;-48
2023/03/31 00:07:24;;;;;;;21.00;3.58;;;10.50;99.90;;;;;;5032833;28;20247;-51
2023/03/31 00:09:53;;;;;;;18.52;2.95;;;10.50;99.90;;;;;;5032404;28;20470;-46
2023/03/31 00:12:19;;;;;;;;;;;10.50;99.90;;;;;;5033107;28;20101;-47
2023/03/31 00:14:45;;;;;;;19.02;3.45;;;10.50;99.90;;;;;;5032404;28;20031;-53
2023/03/31 00:17:11;;;;;;;17.55;3.53;;;10.50;99.90;;;;;;5032270;28;20512;-49
2023/03/31 00:19:36;;;;;;;30.20;4.55;;;10.60;99.90;;;;;;5032546;28;20117;-50
2023/03/31 00:22:04;;;;;;;18.85;3.55;;;10.60;99.90;;;;;;5032501;28;20495;-44
2023/03/31 00:24:32;;;;;;;21.85;3.63;;;10.60;99.90;;;;;;5032185;28;20037;-51
2023/03/31 00:26:59;;;;;;;27.17;4.00;;;10.60;99.90;;;;;;5032242;28;20482;-50
2023/03/31 00:29:25;;;;;;;26.30;4.72;;;10.50;99.90;;;;;;5032293;28;20124;-46
2023/03/31 00:31:51;;;;;;;27.25;3.33;;;10.50;99.90;;;;;;5032387;28;20079;-51
2023/03/31 00:34:16;;;;;;;18.13;3.38;;;10.50;99.90;;;;;;5014721;28;20053;-49
2023/03/31 00:36:46;;;;;;;20.73;3.67;;;10.50;99.90;;;;;;5032244;28;20505;-48
2023/03/31 00:39:13;;;;;;;24.27;3.83;;;10.50;99.90;;;;;;5031940;28;20026;-47
2023/03/31 00:41:39;;;;;;;21.90;4.25;;;10.50;99.90;;;;;;5032263;28;20502;-46
2023/03/31 00:44:13;;;;;;;23.35;5.18;;;10.50;99.90;;;;;;5031763;28;20049;-49
2023/03/31 00:47:01;;;;;;;22.25;3.92;;;10.50;99.90;;;;;;5020040;28;20029;-51
2023/03/31 00:49:35;;;;;;;26.10;4.97;;;10.60;99.90;;;;;;5030653;28;20056;-51
2023/03/31 00:52:07;;;;;;;27.33;4.38;;;10.50;99.90;;;;;;5031933;28;20029;-48
2023/03/31 00:54:35;;;;;;;26.63;4.30;;;10.50;99.90;;;;;;5031670;28;20040;-45
2023/03/31 00:57:05;;;;;;;32.20;5.15;;;10.50;99.90;;;;;;5032028;28;20104;-50
2023/03/31 00:59:37;;;;;;;32.78;4.80;;;10.50;99.90;;;;;;5031838;28;20025;-45
2023/03/31 01:02:03;;;;;;;20.73;4.90;;;10.60;99.90;;;;;;5031857;28;20555;-49
2023/03/31 01:04:40;;;;;;;33.88;5.13;;;10.50;99.90;;;;;;5031792;28;20033;-54
2023/03/31 01:07:19;;;;;;;33.65;5.40;;;10.60;99.90;;;;;;5014285;28;20035;-49
2023/03/31 01:09:46;;;;;;;33.00;5.15;;;10.60;99.90;;;;;;5012758;28;20128;-44
2023/03/31 01:12:14;;;;;;;35.25;5.72;;;10.50;99.90;;;;;;5014083;28;20386;-50
2023/03/31 01:14:40;;;;;;;36.25;5.43;;;10.50;99.90;;;;;;5031652;28;20080;-49
2023/03/31 01:17:08;;;;;;;39.03;5.72;;;10.60;99.90;;;;;;5031083;28;20364;-48
2023/03/31 01:19:55;;;;;;;27.60;4.82;;;10.60;99.90;;;;;;5031360;28;20025;-48
2023/03/31 01:22:48;;;;;;;40.17;6.63;;;10.60;99.90;;;;;;5031372;28;20060;-50
2023/03/31 01:25:29;;;;;;;38.97;4.60;;;10.60;99.90;;;;;;5013325;28;20535;-45
2023/03/31 01:28:38;;;;;;;41.65;5.35;;;10.50;99.90;;;;;;5031553;28;20022;-51
2023/03/31 01:31:16;;;;;;;40.10;5.63;;;10.50;99.90;;;;;;5015483;28;20329;-45
2023/03/31 01:34:03;;;;;;;42.00;6.32;;;10.50;99.90;;;;;;5031087;28;20104;-47
2023/03/31 01:36:45;;;;;;;38.92;6.32;;;10.50;99.90;;;;;;5031265;28;20032;-45
2023/03/31 01:39:48;;;;;;;49.55;6.00;;;10.50;99.90;;;;;;5031069;28;20029;-52
2023/03/31 01:42:36;;;;;;;42.13;6.25;;;10.50;99.90;;;;;;5013307;28;20394;-50
2023/03/31 01:45:07;;;;;;;30.73;4.88;;;10.50;99.90;;;;;;5031105;28;20048;-46
2023/03/31 01:47:39;;;;;;;27.42;4.45;;;10.50;99.90;;;;;;5030297;28;20026;-44
2023/03/31 01:50:17;;;;;;;36.53;5.32;;;10.40;99.90;;;;;;5030758;28;20024;-44
2023/03/31 01:53:15;;;;;;;35.72;6.10;;;10.40;99.90;;;;;;5031023;28;20022;-51
2023/03/31 01:56:05;;;;;;;54.63;6.30;;;10.40;99.90;;;;;;5031204;28;20017;-46
2023/03/31 01:58:43;;;;;;;45.65;5.38;;;10.40;99.90;;;;;;5031284;28;20033;-48
2023/03/31 02:01:25;;;;;;;48.92;5.22;;;10.40;99.90;;;;;;5029152;28;20041;-47
2023/03/31 02:04:22;;;;;;;39.30;5.38;;;10.40;99.90;;;;;;5030718;28;20017;-49
2023/03/31 02:06:56;;;;;;;38.22;5.30;;;10.40;99.90;;;;;;4985671;28;20033;-49
2023/03/31 02:09:30;;;;;;;28.52;5.20;;;10.40;99.90;;;;;;5029616;28;20108;-51
2023/03/31 02:12:00;;;;;;;49.90;6.53;;;10.40;99.90;;;;;;5028569;28;20087;-47
2023/03/31 02:14:30;;;;;;;48.08;6.15;;;10.50;99.90;;;;;;5030505;28;20386;-47
2023/03/31 02:16:57;;;;;;;57.55;6.25;;;10.50;99.90;;;;;;5030617;28;20112;-46
2023/03/31 02:19:28;;;;;;;37.00;4.82;;;10.50;99.90;;;;;;5030104;28;20026;-46
2023/03/31 02:21:54;;;;;;;36.70;5.85;;;10.50;99.90;;;;;;5030564;28;20394;-50
2023/03/31 02:24:24;;;;;;;39.25;5.13;;;10.50;99.90;;;;;;5030581;28;20036;-44
2023/03/31 02:27:06;;;;;;;52.88;7.35;;;10.50;99.90;;;;;;5030657;28;20037;-50
2023/03/31 02:29:31;;;;;;;46.42;6.05;;;10.50;99.90;;;;;;5030730;28;20030;-48
2023/03/31 02:32:12;;;;;;;41.97;7.28;;;10.50;99.90;;;;;;5030310;28;20171;-44
2023/03/31 02:34:40;;;;;;;32.70;5.57;;;10.50;99.90;;;;;;5030459;28;20029;-44
2023/03/31 02:37:07;;;;;;;49.92;7.60;;;10.50;99.90;;;;;;5030362;28;20025;-44
2023/03/31 02:39:35;;;;;;;50.75;6.82;;;10.40;99.90;;;;;;5012549;28;20056;-47
2023/03/31 02:42:06;;;;;;;39.63;6.53;;;10.40;99.90;;;;;;5030559;28;20025;-57
2023/03/31 02:44:36;;;;;;;47.85;5.85;;;10.40;99.90;;;;;;5030081;28;20041;-46
2023/03/31 02:47:04;;;;;;;60.65;8.45;;;10.50;99.90;;;;;;5030218;28;20120;-48
2023/03/31 02:49:30;;;;;;;52.83;6.63;;;10.50;99.90;;;;;;5029959;28;20087;-52
2023/03/31 02:52:38;;;;;;;47.90;6.20;;;10.40;99.90;;;;;;5030225;28;20135;-48
2023/03/31 02:55:06;;;;;;;46.72;5.90;;;10.40;99.90;;;;;;5018216;28;20059;-54
2023/03/31 02:57:58;;;;;;;60.53;7.20;;;10.40;99.90;;;;;;5012214;28;20026;-52
2023/03/31 03:00:24;;;;;;;57.80;7.47;;;10.40;99.90;;;;;;4998985;28;20026;-50
2023/03/31 03:03:21;;;;;;;56.85;7.93;;;10.50;99.90;;;;;;5029711;28;20363;-48
2023/03/31 03:06:13;;;;;;;51.42;6.07;;;10.40;99.90;;;;;;5027019;28;20033;-44
2023/03/31 03:08:56;;;;;;;51.33;6.57;;;10.50;99.90;;;;;;5029293;28;20401;-48
2023/03/31 03:11:45;;;;;;;49.78;8.23;;;10.40;99.90;;;;;;5029393;28;20496;-51
2023/03/31 03:14:19;;;;;;;59.50;7.22;;;10.40;99.90;;;;;;5033547;28;20036;-44
2023/03/31 03:16:52;;;;;;;54.03;7.20;;;10.40;99.90;;;;;;5033554;28;20075;-52
2023/03/31 03:19:21;;;;;;;55.35;7.95;;;10.40;99.90;;;;;;5033614;28;20021;-46
2023/03/31 03:21:46;;;;;;;47.70;7.07;;;10.40;99.90;;;;;;5033859;28;20048;-54
2023/03/31 03:24:15;;;;;;;54.45;7.60;;;10.40;99.90;;;;;;5033476;28;20493;-43
2023/03/31 03:26:41;;;;;;;57.25;6.68;;;10.40;99.90;;;;;;5033401;28;20032;-47
2023/03/31 03:29:07;;;;;;;62.60;8.27;;;10.30;99.90;;;;;;5033396;28;20390;-50
2023/03/31 03:31:33;;;;;;;58.88;7.75;;;10.30;99.90;;;;;;5033396;28;20041;-45
2023/03/31 03:33:59;;;;;;;59.45;7.53;;;10.30;99.90;;;;;;5033466;28;20432;-47
2023/03/31 03:36:25;;;;;;;64.75;7.95;;;10.30;99.90;;;;;;5033261;28;20018;-50
2023/03/31 03:38:51;;;;;;;64.05;7.78;;;10.20;99.90;;;;;;5033294;28;20056;-44
2023/03/31 03:41:16;;;;;;;55.78;7.05;;;10.20;99.90;;;;;;5032730;28;20107;-47
2023/03/31 03:43:42;;;;;;;62.58;8.30;;;10.20;99.90;;;;;;5032804;28;20405;-46
2023/03/31 03:46:08;;;;;;;53.72;8.13;;;10.10;99.90;;;;;;5015526;28;20026;-45
2023/03/31 03:48:33;;;;;;;64.25;7.40;;;10.10;99.90;;;;;;5015230;28;20577;-44
2023/03/31 03:51:00;;;;;;;70.47;8.13;;;10.10;99.90;;;;;;5033035;28;20034;-48
2023/03/31 03:53:26;;;;;;;59.45;7.75;;;10.10;99.90;;;;;;5032835;28;20381;-45
2023/03/31 03:55:51;;;;;;;61.17;7.68;;;10.10;99.90;;;;;;5032836;28;20100;-44
2023/03/31 03:58:20;;;;;;;53.10;9.10;;;10.10;99.90;;;;;;5015128;28;20036;-47
2023/03/31 04:00:46;;;;;;;53.08;6.40;;;10.00;99.90;;;;;;5032887;28;20053;-45
2023/03/31 04:03:13;;;;;;;53.45;8.57;;;10.10;99.90;;;;;;5032838;28;20057;-45
2023/03/31 04:05:39;;;;;;;57.33;6.82;;;10.10;99.90;;;;;;5032638;28;20071;-43
2023/03/31 04:08:07;;;;;;;53.97;7.35;;;10.10;99.90;;;;;;5032403;28;20438;-46
2023/03/31 04:10:33;;;;;;;65.47;8.38;;;10.10;99.90;;;;;;5032063;28;20042;-50
2023/03/31 04:12:58;;;;;;;59.03;6.63;;;10.10;99.90;;;;;;5032602;28;20036;-44
2023/03/31 04:15:24;;;;;;;62.20;8.90;;;10.10;99.90;;;;;;5032661;28;20056;-43
2023/03/31 04:17:53;;;;;;;50.38;6.38;;;10.10;99.90;;;;;;5014893;28;20025;-45
2023/03/31 04:20:19;;;;;;;68.50;8.25;;;10.10;99.90;;;;;;5032436;28;20112;-44
2023/03/31 04:22:49;;;;;;;56.83;7.10;;;10.10;99.90;;;;;;5032442;28;20017;-44
2023/03/31 04:25:15;;;;;;;;;;;10.00;99.90;;;;;;5032487;28;20017;-48
2023/03/31 04:27:53;;;;;;;61.13;7.90;;;10.00;99.90;;;;;;5032632;28;19948;-55
2023/03/31 04:30:22;;;;;;;52.40;6.63;;;10.00;99.90;;;;;;5032233;28;20108;-45
2023/03/31 04:32:54;;;;;;;54.42;7.60;;;10.00;99.90;;;;;;5032298;28;20053;-44
2023/03/31 04:35:21;;;;;;;57.50;7.68;;;10.00;99.90;;;;;;5032235;28;20021;-46
2023/03/31 04:37:48;;;;;;;48.13;7.70;;;9.90;99.90;;;;;;5032063;28;20470;-56
2023/03/31 04:40:15;;;;;;;52.08;7.60;;;9.90;99.90;;;;;;5031951;28;20081;-46
2023/03/31 04:42:42;;;;;;;56.95;8.25;;;9.90;99.90;;;;;;5031972;28;20080;-47
2023/03/31 04:45:08;;;;;;;49.88;6.15;;;9.90;99.90;;;;;;5032171;28;20029;-47
2023/03/31 04:47:34;;;;;;;54.97;6.57;;;9.90;99.90;;;;;;5032103;28;20397;-46
2023/03/31 04:49:59;;;;;;;56.45;7.00;;;9.90;99.90;;;;;;5031727;28;20124;-46
2023/03/31 04:52:25;;;;;;;59.58;8.43;;;9.80;99.90;;;;;;5031868;28;20017;-50
2023/03/31 04:54:50;;;;;;;49.90;6.40;;;9.90;99.90;;;;;;5031389;28;20052;-45
2023/03/31 04:57:16;;;;;;;54.75;7.07;;;9.80;99.90;;;;;;5031939;28;20061;-45
2023/03/31 04:59:42;;;;;;;43.10;6.10;;;9.80;99.90;;;;;;5031918;28;20417;-43
2023/03/31 05:02:08;;;;;;;52.85;6.28;;;9.80;99.90;;;;;;5031677;28;20132;-53
2023/03/31 05:04:33;;;;;;;50.25;7.10;;;9.80;99.90;;;;;;5031686;28;20033;-52
2023/03/31 05:06:59;;;;;;;55.03;7.70;;;9.80;99.90;;;;;;5031704;28;20075;-47
2023/03/31 05:09:24;;;;;;;47.75;6.38;;;9.80;99.90;;;;;;5030127;28;20364;-43
2023/03/31 05:11:50;;;;;;;48.67;5.95;;;9.80;99.90;;;;;;5013633;28;20030;-43
2023/03/31 05:14:16;;;;;;;42.35;5.05;;;9.80;99.90;;;;;;5031566;28;20021;-43
2023/03/31 05:16:42;;;;;;;66.30;8.35;;;9.80;99.90;;;;;;5031712;28;20022;-43
2023/03/31 05:19:07;;;;;;;50.47;7.15;;;9.80;99.90;;;;;;5031288;28;20061;-43
2023/03/31 05:21:33;;;;;;;58.38;6.57;;;9.80;99.90;;;;;;5031358;28;20567;-43
2023/03/31 05:23:58;;;;;;;54.38;6.80;;;9.90;99.90;;;;;;5031106;28;20387;-43
2023/03/31 05:26:24;;;;;;;60.90;7.15;;;9.80;99.90;;;;;;5031004;28;20075;-48
2023/03/31 05:28:51;;;;;;;53.92;7.70;;;9.80;99.90;;;;;;5030762;28;20504;-48
2023/03/31 05:31:17;;;;;;;49.45;7.82;;;9.80;99.90;;;;;;5031013;28;20053;-55
2023/03/31 05:33:43;;;;;;;57.35;7.63;;;9.80;99.90;;;;;;5030506;28;20028;-50
2023/03/31 05:36:15;;;;;;;55.05;7.53;;;9.80;99.90;;;;;;5030497;28;20108;-42
2023/03/31 05:38:41;;;;;;;44.28;5.88;;;9.80;99.90;;;;;;5030897;28;20540;-43
2023/03/31 05:41:08;;;;;;;59.15;6.38;;;9.80;99.90;;;;;;5030795;28;20398;-43
2023/03/31 05:43:34;;;;;;;59.40;7.88;;;9.70;99.90;;;;;;5030462;28;20090;-49
2023/03/31 05:46:01;;;;;;;73.38;8.88;;;9.70;99.90;;;;;;5030663;28;20018;-49
2023/03/31 05:48:26;;;;;;;59.15;8.65;;;9.70;99.90;;;;;;5030983;28;20029;-47
2023/03/31 05:50:57;;;;;;;70.88;8.65;;;9.70;99.90;;;;;;5030935;28;20037;-45
2023/03/31 05:53:22;;;;;;;56.60;7.75;;;9.70;99.90;;;;;;5022449;28;20068;-49
2023/03/31 05:55:48;;;;;;;70.95;8.68;;;9.70;99.90;;;;;;5030625;28;20045;-48
2023/03/31 05:58:14;;;;;;;61.75;8.80;;;9.70;99.90;;;;;;5030675;28;20025;-44
2023/03/31 06:00:39;;;;;;;64.68;8.93;;;9.70;99.90;;;;;;5030612;28;20029;-49
2023/03/31 06:03:06;;;;;;;78.20;9.77;;;9.70;99.90;;;;;;5030582;28;20355;-46
2023/03/31 06:05:33;;;;;;;78.35;10.32;;;9.80;99.90;;;;;;5030971;28;20105;-43
2023/03/31 06:07:59;;;;;;;61.78;8.77;;;9.80;99.90;;;;;;5029976;28;20020;-44
2023/03/31 06:10:24;;;;;;;75.82;9.25;;;9.80;99.90;;;;;;5030341;28;20033;-48
2023/03/31 06:12:50;;;;;;;66.45;7.95;;;9.80;99.90;;;;;;5012687;28;20056;-48
2023/03/31 06:15:16;;;;;;;56.35;9.10;;;9.80;99.90;;;;;;5030417;28;20108;-47
2023/03/31 06:17:42;;;;;;;65.72;7.60;;;9.80;99.90;;;;;;5027226;28;20036;-47
2023/03/31 06:20:08;;;;;;;57.95;7.63;;;9.80;99.90;;;;;;5028440;28;20026;-43
2023/03/31 06:22:33;;;;;;;65.43;7.85;;;9.70;99.90;;;;;;5008491;28;20128;-44
2023/03/31 06:24:59;;;;;;;45.38;7.80;;;9.70;99.90;;;;;;5028776;28;20096;-46
2023/03/31 06:27:25;;;;;;;49.42;7.05;;;9.70;99.90;;;;;;5025753;28;20045;-54
2023/03/31 06:29:50;;;;;;;57.40;7.65;;;9.70;99.90;;;;;;5023610;28;20490;-51
2023/03/31 06:32:16;;;;;;;57.20;6.43;;;9.70;99.90;;;;;;5016575;28;20014;-50
2023/03/31 06:34:42;;;;;;;47.10;6.05;;;9.70;99.90;;;;;;5030356;28;20049;-46
2023/03/31 06:37:07;;;;;;;45.38;6.70;;;9.70;99.90;;;;;;5029863;28;20033;-50
2023/03/31 06:39:33;;;;;;;48.58;6.10;;;9.70;99.90;;;;;;5030058;28;20029;-51
2023/03/31 06:41:58;;;;;;;48.75;6.72;;;9.70;99.90;;;;;;5030239;28;20172;-45
2023/03/31 06:44:24;;;;;;;55.15;7.05;;;9.70;99.90;;;;;;5030123;28;20054;-48
2023/03/31 06:46:50;;;;;;;55.13;7.28;;;9.80;99.90;;;;;;5031260;28;20096;-54
2023/03/31 06:49:15;;;;;;;61.35;8.82;;;9.80;99.90;;;;;;5034416;28;20117;-45
2023/03/31 06:51:41;;;;;;;48.17;7.57;;;9.80;99.90;;;;;;5033917;28;20057;-56
2023/03/31 06:54:07;;;;;;;53.85;7.40;;;9.80;99.90;;;;;;5033765;28;20053;-52
2023/03/31 06:56:32;;;;;;;43.97;6.40;;;9.80;99.90;;;;;;5033818;28;20497;-54
2023/03/31 06:58:58;;;;;;;55.05;6.20;;;9.80;99.90;;;;;;5033681;28;20018;-51
2023/03/31 07:01:23;;;;;;;59.22;7.50;;;9.90;99.90;;;;;;5034174;28;20022;-48
2023/03/31 07:03:49;;;;;;;55.63;8.90;;;9.90;99.90;;;;;;5016136;28;20102;-51
2023/03/31 07:06:15;;;;;;;72.65;8.40;;;9.90;99.90;;;;;;5033517;28;20063;-51
2023/03/31 07:08:41;;;;;;;57.78;6.60;;;9.90;99.90;;;;;;5033990;28;20414;-52
2023/03/31 07:11:06;;;;;;;72.00;8.05;;;10.00;99.90;;;;;;5033512;28;20159;-47
2023/03/31 07:13:32;;;;;;;62.45;7.25;;;9.90;99.90;;;;;;5015869;28;20606;-52
2023/03/31 07:15:58;;;;;;;57.78;7.25;;;9.90;99.90;;;;;;5033810;28;20033;-50
2023/03/31 07:18:24;;;;;;;66.15;9.52;;;10.00;99.90;;;;;;5033790;28;20092;-48
2023/03/31 07:20:51;;;;;;;54.75;7.35;;;9.90;99.90;;;;;;5033479;28;20032;-45
2023/03/31 07:23:18;;;;;;;64.97;8.27;;;9.90;99.90;;;;;;5033268;28;20104;-48
2023/03/31 07:25:45;;;;;;;69.18;7.10;;;9.90;99.90;;;;;;5022860;28;20033;-48
2023/03/31 07:28:11;;;;;;;61.55;8.10;;;9.90;99.90;;;;;;5033169;28;20021;-47
2023/03/31 07:30:36;;;;;;;55.78;7.38;;;9.90;99.90;;;;;;5033755;28;20095;-55
2023/03/31 07:33:02;;;;;;;61.53;7.55;;;10.00;99.90;;;;;;5033865;28;20029;-56
2023/03/31 07:35:28;;;;;;;53.55;7.60;;;9.90;99.90;;;;;;5032964;28;20494;-49
2023/03/31 07:37:53;;;;;;;58.75;7.32;;;10.00;99.90;;;;;;5033505;28;20072;-50
2023/03/31 07:40:23;;;;;;;50.22;5.57;;;9.90;99.90;;;;;;5032857;28;20104;-43
2023/03/31 07:42:50;;;;;;;52.65;7.65;;;10.00;99.90;;;;;;5033281;28;20049;-42
2023/03/31 07:45:18;;;;;;;62.13;7.22;;;10.00;99.90;;;;;;5033178;28;20026;-42
2023/03/31 07:47:45;;;;;;;47.15;6.43;;;10.00;99.90;;;;;;5033190;28;20433;-48
2023/03/31 07:50:12;;;;;;;49.10;6.50;;;10.00;99.90;;;;;;5031854;28;20469;-53
2023/03/31 07:52:38;;;;;;;45.05;6.07;;;10.00;99.90;;;;;;5024500;28;20104;-49
2023/03/31 07:55:04;;;;;;;51.22;6.72;;;10.00;99.90;;;;;;5030496;28;20061;-55
2023/03/31 07:57:30;;;;;;;53.40;5.38;;;9.90;99.90;;;;;;5029210;28;20080;-47
2023/03/31 07:59:56;;;;;;;44.33;6.05;;;9.90;99.90;;;;;;5028052;28;20034;-57
2023/03/31 08:02:21;;;;;;;55.88;5.95;;;9.90;99.90;;;;;;5031059;28;20033;-46
2023/03/31 08:04:47;;;;;;;46.40;7.35;;;9.90;99.90;;;;;;5028482;28;20391;-47
2023/03/31 08:07:14;;;;;;;43.92;5.07;;;9.90;99.90;;;;;;5032010;28;20402;-48
2023/03/31 08:09:42;;;;;;;45.13;6.57;;;9.90;99.90;;;;;;5032454;28;20044;-46
2023/03/31 08:12:07;;;;;;;50.60;7.68;;;9.90;99.90;;;;;;5032523;28;20375;-45
2023/03/31 08:14:33;;;;;;;51.25;6.70;;;10.00;99.90;;;;;;5032101;28;20040;-46
2023/03/31 08:16:59;;;;;;;48.85;6.38;;;10.00;99.90;;;;;;5031325;28;20123;-45
2023/03/31 08:19:25;;;;;;;49.90;6.88;;;10.00;99.90;;;;;;5014472;28;20032;-43
2023/03/31 08:21:51;;;;;;;50.45;7.40;;;10.00;99.90;;;;;;5032254;28;20070;-43
2023/03/31 08:24:17;;;;;;;43.08;6.45;;;10.10;99.90;;;;;;5032168;28;20096;-46
2023/03/31 08:26:43;;;;;;;46.08;6.03;;;10.10;99.90;;;;;;5030362;28;20030;-39
2023/03/31 08:29:08;;;;;;;39.33;5.75;;;10.10;99.90;;;;;;5031621;28;20364;-40
2023/03/31 08:31:34;;;;;;;46.05;5.97;;;10.10;99.90;;;;;;5022282;28;20493;-41
2023/03/31 08:34:01;;;;;;;40.63;6.63;;;10.20;99.90;;;;;;5030864;28;20014;-42
2023/03/31 08:36:27;;;;;;;43.55;5.63;;;10.20;99.90;;;;;;5032324;28;20032;-38
2023/03/31 08:38:54;;;;;;;45.10;5.57;;;10.20;99.90;;;;;;5026567;28;20036;-45
2023/03/31 08:41:48;;;;;;;45.03;6.53;;;10.20;99.90;;;;;;5026310;28;20420;-38
2023/03/31 08:44:25;;;;;;;35.58;5.80;;;10.20;99.90;;;;;;5027699;28;20450;-38
2023/03/31 08:46:54;;;;;;;61.22;7.78;;;10.10;99.90;;;;;;5032309;28;20163;-38
2023/03/31 08:49:22;;;;;;;51.63;6.18;;;10.20;99.90;;;;;;5031846;28;20022;-39
2023/03/31 08:52:02;;;;;;;38.65;5.78;;;10.20;99.90;;;;;;5031929;28;20037;-39
2023/03/31 08:54:37;;;;;;;47.65;6.57;;;10.30;99.90;;;;;;5031552;28;20032;-39
2023/03/31 08:57:05;;;;;;;45.97;6.07;;;10.30;99.90;;;;;;5029362;28;20335;-39
2023/03/31 08:59:33;;;;;;;50.40;7.00;;;10.30;99.90;;;;;;5029463;28;20394;-39
2023/03/31 09:02:11;;;;;;;43.92;4.97;;;10.40;99.90;;;;;;5030109;28;20100;-42
2023/03/31 09:05:07;;;;;;;41.88;5.85;;;10.40;99.90;;;;;;5027407;28;20036;-42
2023/03/31 09:08:03;;;;;;;35.40;5.60;;;10.40;99.90;;;;;;5031570;28;20436;-43
2023/03/31 09:10:32;;;;;;;34.33;5.18;;;10.40;99.90;;;;;;5011167;28;20525;-43
2023/03/31 09:13:22;;;;;;;33.67;5.43;;;10.40;99.90;;;;;;5026295;28;20108;-39
2023/03/31 09:16:01;;;;;;;34.15;4.80;;;10.50;99.90;;;;;;5030907;28;20029;-47
2023/03/31 09:18:37;;;;;;;40.28;5.25;;;10.40;99.90;;;;;;5029037;28;20044;-43
2023/03/31 09:21:27;;;;;;;44.47;7.15;;;10.40;99.90;;;;;;5031429;28;20091;-44
2023/03/31 09:24:18;;;;;;;35.40;5.40;;;10.30;99.90;;;;;;5031495;28;20022;-48
2023/03/31 09:26:47;;;;;;;42.03;6.38;;;10.30;99.90;;;;;;5030164;28;20060;-44
2023/03/31 09:29:23;;;;;;;33.75;5.07;;;10.30;99.90;;;;;;5030984;28;20112;-51
2023/03/31 09:31:49;;;;;;;33.05;5.57;;;10.40;99.90;;;;;;5030865;28;20030;-42
2023/03/31 09:34:27;;;;;;;36.38;6.68;;;10.40;99.90;;;;;;5013596;28;20156;-45
2023/03/31 09:36:53;;;;;;;45.47;7.18;;;10.40;99.90;;;;;;4995650;28;20774;-50
2023/03/31 09:39:18;;;;;;;39.42;6.07;;;10.40;99.90;;;;;;5018355;28;20029;-52
2023/03/31 09:41:48;;;;;;;48.97;6.55;;;10.50;99.90;;;;;;5030604;28;20112;-46
2023/03/31 09:44:27;;;;;;;41.20;7.35;;;10.50;99.90;;;;;;5027707;28;20140;-49
2023/03/31 09:46:54;;;;;;;42.28;6.57;;;10.50;99.90;;;;;;5029565;28;20108;-44
2023/03/31 09:49:31;;;;;;;41.47;7.00;;;10.50;99.90;;;;;;5030688;28;20025;-49
2023/03/31 09:52:03;;;;;;;48.40;8.07;;;10.50;99.90;;;;;;5030451;28;20075;-43
2023/03/31 09:54:45;;;;;;;54.53;6.90;;;10.50;99.90;;;;;;5024260;28;20725;-44
2023/03/31 09:57:27;;;;;;;42.28;5.68;;;10.50;99.90;;;;;;5029747;28;20108;-45
2023/03/31 10:00:00;;;;;;;45.83;7.05;;;10.60;99.90;;;;;;5023586;28;20137;-44
2023/03/31 10:02:34;;;;;;;40.92;6.00;;;10.70;99.90;;;;;;5029002;28;20033;-42
2023/03/31 10:05:00;;;;;;;34.75;5.18;;;10.80;99.90;;;;;;5030427;28;20021;-49
2023/03/31 10:07:25;;;;;;;35.65;5.13;;;10.80;99.90;;;;;;5030593;28;20029;-44
2023/03/31 10:09:53;;;;;;;52.65;5.95;;;10.90;99.90;;;;;;5030039;28;20042;-46
2023/03/31 10:12:23;;;;;;;44.05;6.43;;;10.90;99.90;;;;;;5030086;28;20031;-39
2023/03/31 10:14:53;;;;;;;44.28;5.70;;;11.00;99.90;;;;;;5026270;28;20071;-49
2023/03/31 10:17:23;;;;;;;35.58;6.53;;;11.00;99.90;;;;;;5029133;28;20034;-42
2023/03/31 10:19:58;;;;;;;35.13;4.90;;;11.10;99.90;;;;;;5028992;28;20025;-45
2023/03/31 10:22:28;;;;;;;37.10;5.95;;;11.10;99.90;;;;;;5028653;28;20739;-45
2023/03/31 10:25:03;;;;;;;32.00;4.60;;;11.10;99.90;;;;;;5002650;28;20017;-50
2023/03/31 10:27:30;;;;;;;39.42;5.82;;;11.10;99.90;;;;;;5029211;28;20037;-50
2023/03/31 10:29:58;;;;;;;29.75;5.80;;;11.20;99.90;;;;;;5028828;28;20036;-50
2023/03/31 10:32:32;;;;;;;41.95;5.72;;;11.30;99.90;;;;;;5029312;28;20059;-48
2023/03/31 10:35:42;;;;;;;39.03;4.57;;;11.30;99.90;;;;;;5029393;28;20026;-43
2023/03/31 10:38:15;;;;;;;36.13;5.38;;;11.30;99.90;;;;;;5027016;28;20022;-50
2023/03/31 10:40:50;;;;;;;33.55;5.35;;;11.30;99.90;;;;;;4983862;28;20030;-45
2023/03/31 10:43:24;;;;;;;37.75;6.72;;;11.20;99.90;;;;;;5023299;28;20262;-47
2023/03/31 10:45:56;;;;;;;37.90;6.45;;;11.10;99.90;;;;;;5028505;28;20033;-47
2023/03/31 10:48:31;;;;;;;38.85;5.78;;;11.10;99.90;;;;;;5028733;28;20755;-44
2023/03/31 10:51:10;;;;;;;37.90;5.32;;;11.20;99.90;;;;;;5029811;28;20096;-44
2023/03/31 10:53:59;;;;;;;38.90;5.20;;;11.20;99.90;;;;;;5005271;28;20038;-48
2023/03/31 10:56:39;;;;;;;34.13;5.40;;;11.20;99.90;;;;;;5026397;28;20075;-50
2023/03/31 10:59:28;;;;;;;38.70;6.75;;;11.30;99.90;;;;;;5026641;28;20023;-45
2023/03/31 11:01:54;;;;;;;36.22;5.47;;;11.40;99.90;;;;;;5021430;28;20038;-43
2023/03/31 11:04:50;;;;;;;35.20;5.25;;;11.40;99.90;;;;;;5025620;28;20423;-46
2023/03/31 11:07:48;;;;;;;33.40;5.20;;;11.40;99.90;;;;;;5023724;28;20087;-43
2023/03/31 11:10:40;;;;;;;39.42;5.18;;;11.30;99.90;;;;;;5024115;28;20046;-42
2023/03/31 11:13:32;;;;;;;36.38;5.00;;;11.20;99.90;;;;;;5008550;28;20071;-43
2023/03/31 11:16:07;;;;;;;34.67;5.75;;;11.30;99.90;;;;;;5023778;28;20029;-49
2023/03/31 11:19:10;;;;;;;29.95;5.18;;;11.50;99.90;;;;;;5025470;28;20029;-53
2023/03/31 11:21:55;;;;;;;26.23;4.40;;;11.50;99.90;;;;;;5029476;28;20025;-40
2023/03/31 11:24:24;;;;;;;23.55;3.67;;;11.50;99.90;;;;;;5028722;28;20026;-39
2023/03/31 11:27:15;;;;;;;27.40;5.28;;;11.60;99.90;;;;;;5027108;28;20037;-40
2023/03/31 11:30:05;;;;;;;23.90;3.97;;;11.70;99.90;;;;;;5037481;28;20386;-40
2023/03/31 11:33:11;;;;;;;22.95;3.65;;;11.80;99.90;;;;;;5027995;28;20053;-40
2023/03/31 11:35:55;;;;;;;18.33;3.60;;;11.80;99.90;;;;;;5013104;28;20561;-41
2023/03/31 11:38:52;;;;;;;16.92;3.38;;;11.90;99.90;;;;;;5009442;28;20064;-43
2023/03/31 11:42:04;;;;;;;20.92;4.25;;;11.80;99.90;;;;;;5023806;28;20028;-45
2023/03/31 11:44:38;;;;;;;24.98;3.13;;;11.80;99.90;;;;;;5022524;28;20049;-49
2023/03/31 11:47:14;;;;;;;21.05;2.80;;;11.70;99.90;;;;;;5031155;28;20030;-43
2023/03/31 11:49:53;;;;;;;19.70;3.00;;;11.80;99.90;;;;;;5031322;28;20025;-43
2023/03/31 11:52:28;;;;;;;18.77;3.00;;;11.90;99.90;;;;;;5028567;28;20461;-43
2023/03/31 11:55:05;;;;;;;20.15;3.50;;;12.00;99.90;;;;;;5007969;28;20029;-46
2023/03/31 11:57:44;;;;;;;22.35;3.38;;;11.80;99.90;;;;;;5029215;28;20111;-52
2023/03/31 12:00:42;;;;;;;21.27;3.55;;;11.70;99.90;;;;;;5011510;28;20393;-51
2023/03/31 12:03:20;;;;;;;25.85;3.97;;;11.60;99.90;;;;;;5015690;28;20099;-43
2023/03/31 12:05:54;;;;;;;23.48;4.30;;;11.50;99.90;;;;;;5032751;28;20033;-47
2023/03/31 12:08:39;;;;;;;22.58;3.08;;;11.60;99.90;;;;;;5032919;28;20104;-41
2023/03/31 12:11:08;;;;;;;21.00;3.03;;;11.60;99.90;;;;;;5032284;28;20044;-54
2023/03/31 12:13:57;;;;;;;21.30;3.50;;;11.70;99.90;;;;;;5031951;28;20017;-54
2023/03/31 12:16:42;;;;;;;19.27;2.63;;;12.00;99.90;;;;;;5027441;28;20522;-43
2023/03/31 12:19:16;;;;;;;15.75;2.15;;;12.20;99.90;;;;;;5029486;28;20026;-48
2023/03/31 12:21:50;;;;;;;18.50;3.05;;;12.50;99.90;;;;;;5024818;28;20026;-42
2023/03/31 12:24:16;;;;;;;18.30;4.50;;;12.80;99.90;;;;;;5029493;28;20029;-44
2023/03/31 12:27:12;;;;;;;18.23;3.03;;;12.80;99.90;;;;;;5025876;28;20100;-46
2023/03/31 12:29:41;;;;;;;18.60;2.85;;;12.70;99.90;;;;;;5028220;28;20101;-41
2023/03/31 12:32:17;;;;;;;18.55;2.55;;;12.90;99.90;;;;;;5014369;28;20121;-47
2023/03/31 12:35:15;;;;;;;16.17;2.80;;;13.30;99.90;;;;;;5020967;28;20038;-49
2023/03/31 12:38:02;;;;;;;13.65;2.47;;;13.90;99.90;;;;;;5029130;28;20125;-43
2023/03/31 12:40:45;;;;;;;11.90;2.53;;;14.10;99.90;;;;;;5025629;28;20109;-43
2023/03/31 12:43:47;;;;;;;9.65;2.35;;;14.90;99.90;;;;;;5026551;28;20042;-46
2023/03/31 12:46:18;;;;;;;17.45;2.72;;;15.30;99.90;;;;;;5030308;28;20033;-45
2023/03/31 12:49:15;;;;;;;11.32;1.83;;;14.50;99.90;;;;;;5030625;28;20395;-52
2023/03/31 12:51:43;;;;;;;16.95;2.63;;;13.60;99.90;;;;;;5029976;28;20521;-48
2023/03/31 12:54:30;;;;;;;14.30;2.80;;;13.00;99.90;;;;;;5030818;28;20017;-49
2023/03/31 12:56:59;;;;;;;16.15;2.00;;;12.70;99.90;;;;;;5030505;28;20033;-46
2023/03/31 12:59:36;;;;;;;11.40;1.77;;;12.50;99.90;;;;;;5020006;28;20462;-50
2023/03/31 13:02:14;;;;;;;16.20;1.95;;;12.40;99.90;;;;;;5029826;28;20360;-41
2023/03/31 13:04:40;;;;;;;10.55;2.42;;;12.60;99.90;;;;;;5030428;28;20018;-43
2023/03/31 13:07:24;;;;;;;11.25;1.52;;;12.50;99.90;;;;;;5030185;28;20030;-43
2023/03/31 13:10:13;;;;;;;12.57;2.03;;;12.50;99.90;;;;;;5030129;28;20048;-57